sensor_id;sensor_type;location;lat;lon;timestamp;pressure;altitude;pressure_sealevel;temperature;humidity
75813;BME280;64450;51.168;16.900;2022-11-15T00:02:14;103774.05;;;4.75;80.13
75813;BME280;64450;51.168;16.900;2022-11-15T00:05:15;103762.98;;;4.65;79.43
75813;BME280;64450;51.168;16.900;2022-11-15T00:08:16;103769.96;;;4.62;80.14
75813;BME280;64450;51.168;16.900;2022-11-15T00:11:17;103758.30;;;4.60;81.03
75813;BME280;64450;51.168;16.900;2022-11-15T00:14:25;103752.87;;;4.58;81.48
75813;BME280;64450;51.168;16.900;2022-11-15T00:17:26;103751.20;;;4.60;81.45
75813;BME280;64450;51.168;16.900;2022-11-15T00:20:26;103746.58;;;4.56;80.31
75813;BME280;64450;51.168;16.900;2022-11-15T00:23:27;103752.64;;;4.52;79.89
75813;BME280;64450;51.168;16.900;2022-11-15T00:26:28;103748.14;;;4.51;80.21
75813;BME280;64450;51.168;16.900;2022-11-15T00:29:28;103749.85;;;4.49;80.88
75813;BME280;64450;51.168;16.900;2022-11-15T00:32:32;103748.95;;;4.49;81.46
75813;BME280;64450;51.168;16.900;2022-11-15T00:35:40;103749.77;;;4.48;81.34
75813;BME280;64450;51.168;16.900;2022-11-15T00:38:41;103747.09;;;4.48;80.60
75813;BME280;64450;51.168;16.900;2022-11-15T00:41:42;103747.00;;;4.44;81.45
75813;BME280;64450;51.168;16.900;2022-11-15T00:44:43;103734.55;;;4.45;81.56
75813;BME280;64450;51.168;16.900;2022-11-15T00:47:45;103743.47;;;4.45;82.00
75813;BME280;64450;51.168;16.900;2022-11-15T00:50:46;103749.72;;;4.46;81.56
75813;BME280;64450;51.168;16.900;2022-11-15T00:53:47;103741.60;;;4.43;81.78
75813;BME280;64450;51.168;16.900;2022-11-15T00:56:56;103740.65;;;4.42;81.58
75813;BME280;64450;51.168;16.900;2022-11-15T00:59:57;103742.51;;;4.43;81.37
75813;BME280;64450;51.168;16.900;2022-11-15T01:02:58;103740.61;;;4.41;81.13
75813;BME280;64450;51.168;16.900;2022-11-15T01:06:00;103743.23;;;4.39;80.72
75813;BME280;64450;51.168;16.900;2022-11-15T01:09:01;103736.84;;;4.36;80.83
75813;BME280;64450;51.168;16.900;2022-11-15T01:12:01;103727.87;;;4.34;80.42
75813;BME280;64450;51.168;16.900;2022-11-15T01:15:03;103727.67;;;4.29;79.94
75813;BME280;64450;51.168;16.900;2022-11-15T01:18:12;103713.09;;;4.21;79.99
75813;BME280;64450;51.168;16.900;2022-11-15T01:21:15;103730.95;;;4.22;80.07
75813;BME280;64450;51.168;16.900;2022-11-15T01:24:17;103720.13;;;4.19;79.90
75813;BME280;64450;51.168;16.900;2022-11-15T01:27:17;103726.19;;;4.15;79.63
75813;BME280;64450;51.168;16.900;2022-11-15T01:30:18;103710.89;;;4.11;79.39
75813;BME280;64450;51.168;16.900;2022-11-15T01:33:19;103704.43;;;4.06;79.29
75813;BME280;64450;51.168;16.900;2022-11-15T01:36:21;103706.14;;;4.04;79.85
75813;BME280;64450;51.168;16.900;2022-11-15T01:39:27;103706.99;;;4.03;80.40
75813;BME280;64450;51.168;16.900;2022-11-15T01:42:28;103705.19;;;4.02;80.15
75813;BME280;64450;51.168;16.900;2022-11-15T01:45:29;103697.89;;;3.98;79.64
75813;BME280;64450;51.168;16.900;2022-11-15T01:48:33;103689.75;;;3.94;80.16
75813;BME280;64450;51.168;16.900;2022-11-15T01:51:35;103691.45;;;3.92;80.18
75813;BME280;64450;51.168;16.900;2022-11-15T01:54:36;103681.55;;;3.90;80.32
75813;BME280;64450;51.168;16.900;2022-11-15T01:57:37;103670.96;;;3.91;80.89
75813;BME280;64450;51.168;16.900;2022-11-15T02:00:43;103664.71;;;3.91;81.05
75813;BME280;64450;51.168;16.900;2022-11-15T02:03:55;103662.95;;;3.91;81.02
75813;BME280;64450;51.168;16.900;2022-11-15T02:06:58;103663.67;;;3.87;80.94
75813;BME280;64450;51.168;16.900;2022-11-15T02:10:16;103656.57;;;3.88;80.89
75813;BME280;64450;51.168;16.900;2022-11-15T02:13:18;103654.70;;;3.85;80.56
75813;BME280;64450;51.168;16.900;2022-11-15T02:16:31;103653.70;;;3.83;80.33
75813;BME280;64450;51.168;16.900;2022-11-15T02:19:52;103655.26;;;3.78;80.67
75813;BME280;64450;51.168;16.900;2022-11-15T02:29:26;103649.83;;;3.75;80.68
75813;BME280;64450;51.168;16.900;2022-11-15T02:32:36;103665.73;;;3.74;80.56
75813;BME280;64450;51.168;16.900;2022-11-15T02:35:49;103662.05;;;3.70;81.24
75813;BME280;64450;51.168;16.900;2022-11-15T02:38:59;103654.87;;;3.69;81.06
75813;BME280;64450;51.168;16.900;2022-11-15T02:42:05;103653.15;;;3.70;80.57
75813;BME280;64450;51.168;16.900;2022-11-15T02:45:25;103649.43;;;3.66;80.39
75813;BME280;64450;51.168;16.900;2022-11-15T02:48:27;103643.13;;;3.64;80.07
75813;BME280;64450;51.168;16.900;2022-11-15T02:51:28;103635.89;;;3.61;79.61
75813;BME280;64450;51.168;16.900;2022-11-15T02:54:31;103632.13;;;3.56;79.47
75813;BME280;64450;51.168;16.900;2022-11-15T02:57:44;103639.91;;;3.52;79.50
75813;BME280;64450;51.168;16.900;2022-11-15T03:04:10;103628.95;;;3.44;80.49
75813;BME280;64450;51.168;16.900;2022-11-15T03:07:22;103633.36;;;3.44;80.06
75813;BME280;64450;51.168;16.900;2022-11-15T03:20:05;103621.05;;;3.26;80.57
75813;BME280;64450;51.168;16.900;2022-11-15T03:23:09;103619.23;;;3.25;80.64
75813;BME280;64450;51.168;16.900;2022-11-15T03:26:13;103621.95;;;3.27;80.24
75813;BME280;64450;51.168;16.900;2022-11-15T03:29:21;103609.47;;;3.26;80.27
75813;BME280;64450;51.168;16.900;2022-11-15T03:32:25;103608.57;;;3.25;80.28
75813;BME280;64450;51.168;16.900;2022-11-15T03:35:33;103598.70;;;3.23;80.81
75813;BME280;64450;51.168;16.900;2022-11-15T03:38:37;103604.95;;;3.23;80.97
75813;BME280;64450;51.168;16.900;2022-11-15T03:45:02;103605.32;;;3.11;81.50
75813;BME280;64450;51.168;16.900;2022-11-15T03:48:13;103595.83;;;3.18;81.08
75813;BME280;64450;51.168;16.900;2022-11-15T03:51:15;103600.35;;;3.21;81.05
75813;BME280;64450;51.168;16.900;2022-11-15T03:54:16;103602.21;;;3.22;81.15
75813;BME280;64450;51.168;16.900;2022-11-15T03:57:27;103590.61;;;3.21;80.93
75813;BME280;64450;51.168;16.900;2022-11-15T04:00:29;103591.55;;;3.22;81.10
75813;BME280;64450;51.168;16.900;2022-11-15T04:03:29;103599.59;;;3.23;81.30
75813;BME280;64450;51.168;16.900;2022-11-15T04:06:30;103595.94;;;3.21;80.77
75813;BME280;64450;51.168;16.900;2022-11-15T04:09:31;103588.80;;;3.20;80.54
75813;BME280;64450;51.168;16.900;2022-11-15T04:12:34;103581.66;;;3.19;80.38
75813;BME280;64450;51.168;16.900;2022-11-15T04:15:35;103594.07;;;3.19;80.52
75813;BME280;64450;51.168;16.900;2022-11-15T04:18:43;103599.34;;;3.17;80.82
75813;BME280;64450;51.168;16.900;2022-11-15T04:21:44;103588.60;;;3.15;81.47
75813;BME280;64450;51.168;16.900;2022-11-15T04:24:56;103581.51;;;3.16;81.06
75813;BME280;64450;51.168;16.900;2022-11-15T04:27:57;103586.84;;;3.16;80.29
75813;BME280;64450;51.168;16.900;2022-11-15T04:30:58;103576.06;;;3.13;80.26
75813;BME280;64450;51.168;16.900;2022-11-15T04:34:04;103571.58;;;3.12;80.19
75813;BME280;64450;51.168;16.900;2022-11-15T04:37:05;103570.58;;;3.10;80.15
75813;BME280;64450;51.168;16.900;2022-11-15T04:40:12;103574.95;;;3.08;80.05
75813;BME280;64450;51.168;16.900;2022-11-15T04:43:12;103586.37;;;3.05;80.11
75813;BME280;64450;51.168;16.900;2022-11-15T04:46:13;103588.13;;;3.05;80.58
75813;BME280;64450;51.168;16.900;2022-11-15T04:49:14;103592.55;;;3.04;80.77
75813;BME280;64450;51.168;16.900;2022-11-15T04:52:15;103590.80;;;3.05;80.89
75813;BME280;64450;51.168;16.900;2022-11-15T04:55:21;103580.93;;;3.02;80.41
75813;BME280;64450;51.168;16.900;2022-11-15T04:58:21;103588.87;;;3.01;80.41
75813;BME280;64450;51.168;16.900;2022-11-15T05:01:22;103579.82;;;2.97;80.25
75813;BME280;64450;51.168;16.900;2022-11-15T05:04:23;103578.06;;;2.98;80.40
75813;BME280;64450;51.168;16.900;2022-11-15T05:07:24;103576.23;;;2.97;80.44
75813;BME280;64450;51.168;16.900;2022-11-15T05:10:24;103563.77;;;2.96;80.28
75813;BME280;64450;51.168;16.900;2022-11-15T05:13:25;103561.01;;;2.94;80.02
75813;BME280;64450;51.168;16.900;2022-11-15T05:16:36;103554.66;;;2.91;79.83
75813;BME280;64450;51.168;16.900;2022-11-15T05:19:37;103557.24;;;2.89;79.71
75813;BME280;64450;51.168;16.900;2022-11-15T05:22:39;103560.76;;;2.88;79.96
75813;BME280;64450;51.168;16.900;2022-11-15T05:25:40;103557.03;;;2.84;80.59
75813;BME280;64450;51.168;16.900;2022-11-15T05:28:40;103560.63;;;2.85;81.10
75813;BME280;64450;51.168;16.900;2022-11-15T05:31:41;103547.31;;;2.85;81.60
75813;BME280;64450;51.168;16.900;2022-11-15T05:34:43;103542.95;;;2.87;81.48
75813;BME280;64450;51.168;16.900;2022-11-15T05:37:52;103546.58;;;2.89;81.15
75813;BME280;64450;51.168;16.900;2022-11-15T05:40:53;103544.77;;;2.88;80.65
75813;BME280;64450;51.168;16.900;2022-11-15T05:43:55;103554.52;;;2.87;80.51
75813;BME280;64450;51.168;16.900;2022-11-15T05:46:56;103555.45;;;2.69;81.62
75813;BME280;64450;51.168;16.900;2022-11-15T05:49:58;103564.43;;;2.71;81.56
75813;BME280;64450;51.168;16.900;2022-11-15T05:53:00;103563.52;;;2.70;81.23
75813;BME280;64450;51.168;16.900;2022-11-15T05:56:03;103552.02;;;2.71;81.08
75813;BME280;64450;51.168;16.900;2022-11-15T05:59:08;103544.03;;;2.71;80.77
75813;BME280;64450;51.168;16.900;2022-11-15T06:02:10;103535.98;;;2.70;81.01
75813;BME280;64450;51.168;16.900;2022-11-15T06:05:11;103532.53;;;2.72;80.96
75813;BME280;64450;51.168;16.900;2022-11-15T06:08:12;103527.21;;;2.72;81.01
75813;BME280;64450;51.168;16.900;2022-11-15T06:11:13;103540.52;;;2.72;80.56
75813;BME280;64450;51.168;16.900;2022-11-15T06:14:13;103546.55;;;2.68;80.04
75813;BME280;64450;51.168;16.900;2022-11-15T06:17:14;103558.90;;;2.66;80.80
75813;BME280;64450;51.168;16.900;2022-11-15T06:20:24;103555.26;;;2.64;81.28
75813;BME280;64450;51.168;16.900;2022-11-15T06:23:26;103556.38;;;2.69;81.18
75813;BME280;64450;51.168;16.900;2022-11-15T06:26:27;103543.13;;;2.71;81.06
75813;BME280;64450;51.168;16.900;2022-11-15T06:29:28;103553.08;;;2.75;80.91
75813;BME280;64450;51.168;16.900;2022-11-15T06:32:29;103561.83;;;2.72;80.76
75813;BME280;64450;51.168;16.900;2022-11-15T06:35:33;103576.63;;;2.46;81.04
75813;BME280;64450;51.168;16.900;2022-11-15T06:38:36;103574.80;;;2.45;82.24
75813;BME280;64450;51.168;16.900;2022-11-15T06:41:40;103562.20;;;2.60;81.70
75813;BME280;64450;51.168;16.900;2022-11-15T06:44:41;103567.04;;;2.69;81.46
75813;BME280;64450;51.168;16.900;2022-11-15T06:47:45;103563.73;;;2.75;81.09
75813;BME280;64450;51.168;16.900;2022-11-15T06:50:54;103563.00;;;2.79;80.66
75813;BME280;64450;51.168;16.900;2022-11-15T06:53:55;103568.53;;;2.83;80.33
75813;BME280;64450;51.168;16.900;2022-11-15T06:57:04;103582.85;;;2.85;80.74
75813;BME280;64450;51.168;16.900;2022-11-15T07:00:05;103580.95;;;2.83;81.40
75813;BME280;64450;51.168;16.900;2022-11-15T07:03:07;103581.16;;;2.87;81.31
75813;BME280;64450;51.168;16.900;2022-11-15T07:06:08;103582.27;;;2.93;81.39
75813;BME280;64450;51.168;16.900;2022-11-15T07:09:10;103588.99;;;3.04;81.16
75813;BME280;64450;51.168;16.900;2022-11-15T07:12:11;103586.59;;;3.10;80.95
75813;BME280;64450;51.168;16.900;2022-11-15T07:15:11;103588.67;;;3.17;80.92
75813;BME280;64450;51.168;16.900;2022-11-15T07:18:17;103572.09;;;3.24;80.85
75813;BME280;64450;51.168;16.900;2022-11-15T07:21:18;103575.16;;;3.33;80.80
75813;BME280;64450;51.168;16.900;2022-11-15T07:24:19;103578.14;;;3.41;80.74
75813;BME280;64450;51.168;16.900;2022-11-15T07:27:20;103574.11;;;3.51;80.83
75813;BME280;64450;51.168;16.900;2022-11-15T07:30:21;103579.84;;;3.60;80.68
75813;BME280;64450;51.168;16.900;2022-11-15T07:33:21;103569.59;;;3.71;80.68
75813;BME280;64450;51.168;16.900;2022-11-15T07:36:22;103551.63;;;3.66;80.69
75813;BME280;64450;51.168;16.900;2022-11-15T07:39:33;103565.08;;;3.90;80.61
75813;BME280;64450;51.168;16.900;2022-11-15T07:42:34;103562.73;;;4.00;80.59
75813;BME280;64450;51.168;16.900;2022-11-15T07:45:47;103568.45;;;4.09;80.47
75813;BME280;64450;51.168;16.900;2022-11-15T07:48:47;103564.33;;;4.17;80.48
75813;BME280;64450;51.168;16.900;2022-11-15T07:51:48;103566.50;;;4.27;80.30
75813;BME280;64450;51.168;16.900;2022-11-15T07:54:54;103564.11;;;4.35;80.20
75813;BME280;64450;51.168;16.900;2022-11-15T07:58:02;103556.46;;;4.44;80.16
75813;BME280;64450;51.168;16.900;2022-11-15T08:01:05;103560.39;;;4.54;80.11
75813;BME280;64450;51.168;16.900;2022-11-15T08:04:06;103560.70;;;4.63;80.11
75813;BME280;64450;51.168;16.900;2022-11-15T08:07:07;103564.59;;;4.71;80.11
75813;BME280;64450;51.168;16.900;2022-11-15T08:10:16;103557.64;;;4.76;80.15
75813;BME280;64450;51.168;16.900;2022-11-15T08:13:20;103552.72;;;4.88;79.96
75813;BME280;64450;51.168;16.900;2022-11-15T08:16:21;103547.72;;;4.97;79.92
75813;BME280;64450;51.168;16.900;2022-11-15T08:19:22;103539.16;;;5.08;79.92
75813;BME280;64450;51.168;16.900;2022-11-15T08:22:23;103541.23;;;5.16;79.93
75813;BME280;64450;51.168;16.900;2022-11-15T08:25:25;103541.59;;;5.27;79.91
75813;BME280;64450;51.168;16.900;2022-11-15T08:28:29;103505.68;;;5.19;79.94
75813;BME280;64450;51.168;16.900;2022-11-15T08:31:35;103536.88;;;5.45;79.92
75813;BME280;64450;51.168;16.900;2022-11-15T08:34:39;103528.25;;;5.54;79.89
75813;BME280;64450;51.168;16.900;2022-11-15T08:37:40;103535.59;;;5.61;79.89
75813;BME280;64450;51.168;16.900;2022-11-15T08:40:41;103534.14;;;5.71;79.77
75813;BME280;64450;51.168;16.900;2022-11-15T08:43:42;103532.66;;;5.81;79.63
75813;BME280;64450;51.168;16.900;2022-11-15T08:46:45;103532.92;;;5.90;79.73
75813;BME280;64450;51.168;16.900;2022-11-15T08:49:46;103529.67;;;5.98;79.52
75813;BME280;64450;51.168;16.900;2022-11-15T08:52:51;103525.52;;;6.08;79.40
75813;BME280;64450;51.168;16.900;2022-11-15T08:55:52;103527.61;;;6.18;79.33
75813;BME280;64450;51.168;16.900;2022-11-15T08:58:53;103526.95;;;6.27;79.48
75813;BME280;64450;51.168;16.900;2022-11-15T09:01:54;103523.67;;;6.37;79.57
75813;BME280;64450;51.168;16.900;2022-11-15T09:04:54;103523.96;;;6.46;79.50
75813;BME280;64450;51.168;16.900;2022-11-15T09:07:55;103522.48;;;6.58;79.41
75813;BME280;64450;51.168;16.900;2022-11-15T09:10:56;103526.37;;;6.69;79.48
75813;BME280;64450;51.168;16.900;2022-11-15T09:14:07;103510.64;;;6.81;79.33
75813;BME280;64450;51.168;16.900;2022-11-15T09:17:08;103517.19;;;6.92;79.18
75813;BME280;64450;51.168;16.900;2022-11-15T09:20:09;103514.83;;;7.04;79.21
75813;BME280;64450;51.168;16.900;2022-11-15T09:23:10;103524.04;;;7.14;79.02
75813;BME280;64450;51.168;16.900;2022-11-15T09:26:12;103515.36;;;7.24;78.61
75813;BME280;64450;51.168;16.900;2022-11-15T09:29:13;103509.35;;;7.34;78.39
75813;BME280;64450;51.168;16.900;2022-11-15T09:32:14;103500.70;;;7.48;78.22
75813;BME280;64450;51.168;16.900;2022-11-15T09:35:22;103502.75;;;7.58;78.49
75813;BME280;64450;51.168;16.900;2022-11-15T09:38:23;103507.49;;;7.70;78.50
75813;BME280;64450;51.168;16.900;2022-11-15T09:44:42;103499.98;;;7.93;77.81
75813;BME280;64450;51.168;16.900;2022-11-15T09:47:56;103502.02;;;8.04;77.71
75813;BME280;64450;51.168;16.900;2022-11-15T09:50:58;103489.70;;;8.14;77.32
75813;BME280;64450;51.168;16.900;2022-11-15T09:54:10;103481.94;;;8.28;77.10
75813;BME280;64450;51.168;16.900;2022-11-15T09:57:17;103475.94;;;8.40;76.58
75813;BME280;64450;51.168;16.900;2022-11-15T10:00:22;103466.28;;;8.51;76.85
75813;BME280;64450;51.168;16.900;2022-11-15T10:03:34;103459.35;;;8.63;76.31
75813;BME280;64450;51.168;16.900;2022-11-15T10:06:40;103454.23;;;8.76;75.95
75813;BME280;64450;51.168;16.900;2022-11-15T10:09:54;103443.66;;;8.88;75.42
75813;BME280;64450;51.168;16.900;2022-11-15T10:12:57;103443.86;;;9.00;75.34
75813;BME280;64450;51.168;16.900;2022-11-15T10:25:41;103423.09;;;9.48;73.77
75813;BME280;64450;51.168;16.900;2022-11-15T10:28:46;103425.04;;;9.59;74.10
75813;BME280;64450;51.168;16.900;2022-11-15T10:31:47;103419.85;;;9.72;74.00
75813;BME280;64450;51.168;16.900;2022-11-15T10:34:49;103418.19;;;9.81;74.07
75813;BME280;64450;51.168;16.900;2022-11-15T10:37:51;103409.35;;;9.93;73.85
75813;BME280;64450;51.168;16.900;2022-11-15T10:41:06;103406.79;;;10.04;73.84
75813;BME280;64450;51.168;16.900;2022-11-15T10:47:31;103388.24;;;10.28;73.15
75813;BME280;64450;51.168;16.900;2022-11-15T10:50:32;103384.77;;;10.40;72.97
75813;BME280;64450;51.168;16.900;2022-11-15T10:53:43;103380.38;;;10.53;72.82
75813;BME280;64450;51.168;16.900;2022-11-15T10:56:50;103375.13;;;10.66;72.69
75813;BME280;64450;51.168;16.900;2022-11-15T11:00:00;103366.23;;;10.77;71.96
75813;BME280;64450;51.168;16.900;2022-11-15T11:03:20;103362.71;;;10.88;71.37
75813;BME280;64450;51.168;16.900;2022-11-15T11:06:15;103370.03;;;11.03;70.73
75813;BME280;64450;51.168;16.900;2022-11-15T11:12:32;103359.40;;;11.29;70.47
75813;BME280;64450;51.168;16.900;2022-11-15T11:15:34;103361.27;;;11.41;69.64
75813;BME280;64450;51.168;16.900;2022-11-15T11:18:43;103365.86;;;11.56;69.31
75813;BME280;64450;51.168;16.900;2022-11-15T11:25:08;103351.52;;;11.73;68.18
75813;BME280;64450;51.168;16.900;2022-11-15T11:38:04;103326.48;;;12.23;67.70
75813;BME280;64450;51.168;16.900;2022-11-15T11:47:32;103316.56;;;12.62;66.02
75813;BME280;64450;51.168;16.900;2022-11-15T11:50:37;103314.75;;;12.79;65.94
75813;BME280;64450;51.168;16.900;2022-11-15T11:53:50;103303.02;;;12.90;65.34
75813;BME280;64450;51.168;16.900;2022-11-15T11:56:53;103313.82;;;13.00;65.32
75813;BME280;64450;51.168;16.900;2022-11-15T12:00:01;103304.77;;;13.15;65.14
75813;BME280;64450;51.168;16.900;2022-11-15T12:03:11;103301.19;;;13.24;65.31
75813;BME280;64450;51.168;16.900;2022-11-15T12:06:23;103295.68;;;13.39;64.91
75813;BME280;64450;51.168;16.900;2022-11-15T12:12:52;103285.64;;;13.67;63.83
75813;BME280;64450;51.168;16.900;2022-11-15T12:16:09;103281.05;;;13.81;63.91
75813;BME280;64450;51.168;16.900;2022-11-15T12:19:18;103268.29;;;13.99;63.19
75813;BME280;64450;51.168;16.900;2022-11-15T12:22:25;103268.12;;;14.20;62.83
75813;BME280;64450;51.168;16.900;2022-11-15T12:25:44;103258.01;;;14.41;62.35
75813;BME280;64450;51.168;16.900;2022-11-15T12:28:53;103258.73;;;14.64;62.09
75813;BME280;64450;51.168;16.900;2022-11-15T12:31:56;103242.92;;;15.04;61.14
75813;BME280;64450;51.168;16.900;2022-11-15T12:35:02;103237.91;;;15.43;57.95
75813;BME280;64450;51.168;16.900;2022-11-15T12:38:12;103230.13;;;15.83;58.59
75813;BME280;64450;51.168;16.900;2022-11-15T12:41:19;103200.54;;;16.19;55.22
75813;BME280;64450;51.168;16.900;2022-11-15T12:47:40;103232.45;;;17.08;54.40
75813;BME280;64450;51.168;16.900;2022-11-15T12:53:54;103198.29;;;17.75;49.95
75813;BME280;64450;51.168;16.900;2022-11-15T13:03:30;103185.07;;;18.98;48.30
75813;BME280;64450;51.168;16.900;2022-11-15T13:06:44;103177.41;;;19.41;46.52
75813;BME280;64450;51.168;16.900;2022-11-15T13:09:51;103154.17;;;19.83;44.06
75813;BME280;64450;51.168;16.900;2022-11-15T13:12:58;103156.84;;;20.38;42.81
75813;BME280;64450;51.168;16.900;2022-11-15T13:16:05;103159.73;;;21.08;42.77
75813;BME280;64450;51.168;16.900;2022-11-15T13:19:09;103143.01;;;22.05;39.00
75813;BME280;64450;51.168;16.900;2022-11-15T13:22:11;103139.69;;;23.19;37.28
75813;BME280;64450;51.168;16.900;2022-11-15T13:28:46;103133.38;;;25.28;34.58
75813;BME280;64450;51.168;16.900;2022-11-15T13:31:52;103119.02;;;26.01;31.82
75813;BME280;64450;51.168;16.900;2022-11-15T13:34:57;103119.95;;;26.46;31.93
75813;BME280;64450;51.168;16.900;2022-11-15T13:38:04;103105.55;;;26.83;27.99
75813;BME280;64450;51.168;16.900;2022-11-15T13:41:16;103104.90;;;27.08;27.67
75813;BME280;64450;51.168;16.900;2022-11-15T13:44:29;103106.08;;;27.19;29.25
75813;BME280;64450;51.168;16.900;2022-11-15T13:47:30;103116.03;;;27.35;30.14
75813;BME280;64450;51.168;16.900;2022-11-15T13:50:33;103118.47;;;27.54;29.71
75813;BME280;64450;51.168;16.900;2022-11-15T13:53:39;103100.96;;;27.54;27.47
75813;BME280;64450;51.168;16.900;2022-11-15T13:56:45;103107.08;;;27.59;28.32
75813;BME280;64450;51.168;16.900;2022-11-15T14:06:17;103104.56;;;26.99;28.88
75813;BME280;64450;51.168;16.900;2022-11-15T14:09:30;103109.79;;;26.16;30.37
75813;BME280;64450;51.168;16.900;2022-11-15T14:12:35;103095.80;;;25.42;29.73
75813;BME280;64450;51.168;16.900;2022-11-15T14:15:38;103099.24;;;25.14;30.51
75813;BME280;64450;51.168;16.900;2022-11-15T14:18:49;103095.72;;;24.09;32.47
75813;BME280;64450;51.168;16.900;2022-11-15T14:31:30;103089.98;;;19.92;39.22
75813;BME280;64450;51.168;16.900;2022-11-15T14:34:34;103120.19;;;19.33;40.80
75813;BME280;64450;51.168;16.900;2022-11-15T14:37:40;103115.05;;;18.62;42.07
75813;BME280;64450;51.168;16.900;2022-11-15T14:40:42;103122.34;;;17.94;43.44
75813;BME280;64450;51.168;16.900;2022-11-15T14:43:44;103120.07;;;17.37;44.62
75813;BME280;64450;51.168;16.900;2022-11-15T14:46:45;103121.23;;;16.85;45.88
75813;BME280;64450;51.168;16.900;2022-11-15T14:49:46;103123.13;;;16.34;47.22
75813;BME280;64450;51.168;16.900;2022-11-15T14:52:47;103126.70;;;15.88;48.12
75813;BME280;64450;51.168;16.900;2022-11-15T14:55:49;103121.89;;;15.47;49.26
75813;BME280;64450;51.168;16.900;2022-11-15T14:58:55;103122.45;;;15.07;50.29
75813;BME280;64450;51.168;16.900;2022-11-15T15:01:56;103124.73;;;14.70;51.59
75813;BME280;64450;51.168;16.900;2022-11-15T15:04:59;103130.54;;;14.34;52.57
75813;BME280;64450;51.168;16.900;2022-11-15T15:08:04;103133.58;;;13.99;53.74
75813;BME280;64450;51.168;16.900;2022-11-15T15:11:13;103126.63;;;13.65;54.53
75813;BME280;64450;51.168;16.900;2022-11-15T15:14:17;103138.58;;;13.36;55.15
75813;BME280;64450;51.168;16.900;2022-11-15T15:17:17;103143.21;;;13.08;56.42
75813;BME280;64450;51.168;16.900;2022-11-15T15:20:18;103144.23;;;12.79;57.53
75813;BME280;64450;51.168;16.900;2022-11-15T15:23:20;103140.70;;;12.58;57.90
75813;BME280;64450;51.168;16.900;2022-11-15T15:26:21;103139.86;;;12.34;58.50
75813;BME280;64450;51.168;16.900;2022-11-15T15:29:23;103141.69;;;12.11;59.14
75813;BME280;64450;51.168;16.900;2022-11-15T15:32:24;103140.80;;;11.87;59.88
75813;BME280;64450;51.168;16.900;2022-11-15T15:35:34;103137.13;;;11.64;60.49
75813;BME280;64450;51.168;16.900;2022-11-15T15:38:35;103136.22;;;11.45;61.43
75813;BME280;64450;51.168;16.900;2022-11-15T15:41:36;103130.77;;;11.25;61.94
75813;BME280;64450;51.168;16.900;2022-11-15T15:44:36;103119.03;;;11.08;62.46
75813;BME280;64450;51.168;16.900;2022-11-15T15:47:38;103116.26;;;10.89;63.34
75813;BME280;64450;51.168;16.900;2022-11-15T15:50:39;103117.98;;;10.72;63.76
75813;BME280;64450;51.168;16.900;2022-11-15T15:53:40;103120.62;;;10.55;64.23
75813;BME280;64450;51.168;16.900;2022-11-15T15:56:47;103115.09;;;10.37;64.22
75813;BME280;64450;51.168;16.900;2022-11-15T15:59:48;103127.54;;;10.22;65.54
75813;BME280;64450;51.168;16.900;2022-11-15T16:02:49;103134.62;;;10.05;67.60
75813;BME280;64450;51.168;16.900;2022-11-15T16:05:50;103151.59;;;9.93;67.98
75813;BME280;64450;51.168;16.900;2022-11-15T16:08:51;103147.01;;;9.85;68.17
75813;BME280;64450;51.168;16.900;2022-11-15T16:11:52;103143.32;;;9.75;67.51
75813;BME280;64450;51.168;16.900;2022-11-15T16:14:53;103153.15;;;9.65;68.40
75813;BME280;64450;51.168;16.900;2022-11-15T16:18:04;103147.66;;;9.55;68.11
75813;BME280;64450;51.168;16.900;2022-11-15T16:21:05;103151.15;;;9.46;70.02
75813;BME280;64450;51.168;16.900;2022-11-15T16:24:06;103147.50;;;9.39;69.13
75813;BME280;64450;51.168;16.900;2022-11-15T16:27:13;103152.78;;;9.32;69.05
75813;BME280;64450;51.168;16.900;2022-11-15T16:30:16;103138.35;;;9.24;69.95
75813;BME280;64450;51.168;16.900;2022-11-15T16:33:24;103138.24;;;9.16;69.49
75813;BME280;64450;51.168;16.900;2022-11-15T16:36:26;103146.25;;;9.08;70.32
75813;BME280;64450;51.168;16.900;2022-11-15T16:39:27;103146.12;;;8.98;71.22
75813;BME280;64450;51.168;16.900;2022-11-15T16:42:31;103130.81;;;8.92;70.42
75813;BME280;64450;51.168;16.900;2022-11-15T16:45:33;103133.44;;;8.86;70.68
75813;BME280;64450;51.168;16.900;2022-11-15T16:48:46;103133.31;;;8.78;70.61
75813;BME280;64450;51.168;16.900;2022-11-15T16:51:48;103123.38;;;8.71;71.77
75813;BME280;64450;51.168;16.900;2022-11-15T16:54:49;103125.99;;;8.65;71.35
75813;BME280;64450;51.168;16.900;2022-11-15T16:57:50;103121.44;;;8.59;71.92
75813;BME280;64450;51.168;16.900;2022-11-15T17:00:55;103128.55;;;8.56;72.77
75813;BME280;64450;51.168;16.900;2022-11-15T17:04:09;103133.86;;;8.51;72.95
75813;BME280;64450;51.168;16.900;2022-11-15T17:07:13;103133.86;;;8.51;73.48
75813;BME280;64450;51.168;16.900;2022-11-15T17:10:14;103130.25;;;8.49;73.88
75813;BME280;64450;51.168;16.900;2022-11-15T17:13:15;103122.20;;;8.49;74.09
75813;BME280;64450;51.168;16.900;2022-11-15T17:16:17;103124.83;;;8.48;73.94
75813;BME280;64450;51.168;16.900;2022-11-15T17:19:27;103123.01;;;8.45;73.50
75813;BME280;64450;51.168;16.900;2022-11-15T17:22:28;103114.00;;;8.42;73.10
75813;BME280;64450;51.168;16.900;2022-11-15T17:25:29;103118.34;;;8.35;72.70
75813;BME280;64450;51.168;16.900;2022-11-15T17:28:31;103118.27;;;8.29;72.96
75813;BME280;64450;51.168;16.900;2022-11-15T17:31:36;103120.83;;;8.21;73.00
75813;BME280;64450;51.168;16.900;2022-11-15T17:34:37;103116.26;;;8.14;72.94
75813;BME280;64450;51.168;16.900;2022-11-15T17:37:38;103117.95;;;8.07;73.16